Time;durP1;ratioP1;P1;durP2;ratioP2;P2;SDS_P1;SDS_P2;PMS_P1;PMS_P2;Temp;Humidity;BMP_temperature;BMP_pressure;BME280_temperature;BME280_humidity;BME280_pressure;Samples;Min_cycle;Max_cycle;Signal;HPM_P1;HPM_P2
2023/10/20 00:00:30;;;;;;;29.05;27.25;;;;;;;9.21;100.00;100357.69;5070936;28;20072;-78
2023/10/20 00:03:36;;;;;;;31.52;29.42;;;;;;;9.01;100.00;100362.97;5067293;28;20670;-77
2023/10/20 00:06:18;;;;;;;36.00;33.90;;;;;;;9.07;100.00;100362.16;5068688;28;20436;-78
2023/10/20 00:08:45;;;;;;;36.55;34.35;;;;;;;9.21;100.00;100355.03;5070459;28;20070;-79
2023/10/20 00:11:12;;;;;;;30.45;28.17;;;;;;;9.21;100.00;100356.88;5070965;28;20126;-77
2023/10/20 00:14:17;;;;;;;27.70;26.00;;;;;;;9.12;100.00;100354.44;5071054;28;20052;-77
2023/10/20 00:16:44;;;;;;;61.15;57.80;;;;;;;8.89;100.00;100352.19;5050195;28;20103;-78
2023/10/20 00:19:12;;;;;;;45.50;42.90;;;;;;;8.94;100.00;100347.09;5065276;28;20060;-78
2023/10/20 00:21:40;;;;;;;47.17;44.47;;;;;;;8.80;100.00;100353.41;5069837;28;20048;-78
2023/10/20 00:24:10;;;;;;;51.55;48.75;;;;;;;8.66;100.00;100355.22;5056932;28;20044;-76
2023/10/20 00:26:39;;;;;;;43.85;41.35;;;;;;;8.63;100.00;100355.63;5066503;28;20041;-76
2023/10/20 00:29:25;;;;;;;63.30;59.90;;;;;;;8.63;100.00;100354.81;5050460;28;20068;-77
2023/10/20 00:32:06;;;;;;;53.78;50.60;;;;;;;8.54;100.00;100367.44;5056122;28;20041;-77
2023/10/20 00:34:33;;;;;;;59.53;56.42;;;;;;;8.54;100.00;100369.28;5063789;28;20128;-76
2023/10/20 00:37:24;;;;;;;61.33;57.78;;;;;;;8.39;100.00;100364.16;5068243;28;20053;-77
2023/10/20 00:43:19;;;;;;;48.45;45.75;;;;;;;8.53;100.00;100357.84;5074558;28;20097;-77
2023/10/20 00:46:24;;;;;;;47.22;44.53;;;;;;;8.38;100.00;100359.81;5074338;28;20078;-78
2023/10/20 00:49:08;;;;;;;76.85;72.90;;;;;;;8.42;100.00;100359.25;5074462;28;20189;-78
2023/10/20 00:51:36;;;;;;;67.38;63.72;;;;;;;8.23;100.00;100371.41;5074650;28;20056;-77
2023/10/20 00:57:26;;;;;;;38.63;36.53;;;;;;;8.36;100.00;100360.03;5074343;28;20028;-77
2023/10/20 00:59:54;;;;;;;51.03;48.28;;;;;;;8.27;100.00;100356.75;5073995;28;20040;-77
2023/10/20 01:02:30;;;;;;;38.40;36.30;;;;;;;8.34;100.00;100354.13;5073909;28;20048;-77
2023/10/20 01:08:22;;;;;;;29.88;28.08;;;;;;;8.26;100.00;100363.06;5069008;28;20423;-77
2023/10/20 01:11:37;;;;;;;36.03;34.03;;;;;;;8.55;100.00;100357.66;5074115;28;20074;-78
2023/10/20 01:14:15;;;;;;;34.85;32.90;;;;;;;8.58;100.00;100350.13;5054016;28;20052;-78
2023/10/20 01:20:22;;;;;;;46.92;44.08;;;;;;;8.44;100.00;100351.09;5053833;28;20048;-78
2023/10/20 01:26:17;;;;;;;41.85;39.13;;;;;;;8.66;100.00;100346.47;5053677;28;20099;-75
2023/10/20 01:29:31;;;;;;;38.75;36.55;;;;;;;8.61;100.00;100346.25;5058612;28;20536;-76
2023/10/20 01:42:24;;;;;;;36.30;34.28;;;;;;;8.74;100.00;100342.81;5059767;28;20094;-77
2023/10/20 01:44:56;;;;;;;44.10;41.85;;;;;;;8.68;100.00;100342.63;5073349;28;20052;-76
2023/10/20 01:50:45;;;;;;;45.20;42.90;;;;;;;8.54;100.00;100337.50;5073313;28;20054;-77
2023/10/20 01:53:52;;;;;;;40.10;38.10;;;;;;;8.44;100.00;100336.06;5073217;28;20049;-77
2023/10/20 02:00:13;;;;;;;40.33;38.17;;;;;;;8.38;100.00;100331.56;5053215;28;20036;-77
2023/10/20 02:02:40;;;;;;;50.17;47.90;;;;;;;8.31;100.00;100327.25;5064236;28;20045;-78
2023/10/20 02:05:44;;;;;;;49.33;46.92;;;;;;;8.51;100.00;100322.03;5073323;28;20059;-77
2023/10/20 02:08:44;;;;;;;43.78;41.67;;;;;;;8.60;100.00;100323.47;5059798;28;20049;-78
2023/10/20 02:17:55;;;;;;;51.33;48.75;;;;;;;8.45;100.00;100305.13;5057984;28;20039;-78
2023/10/20 02:37:12;;;;;;;48.90;46.40;;;;;;;7.97;100.00;100284.03;5051327;28;20574;-78
2023/10/20 02:40:10;;;;;;;40.42;38.22;;;;;;;8.44;100.00;100280.50;5052537;28;20045;-77
2023/10/20 02:42:46;;;;;;;37.35;35.35;;;;;;;8.21;100.00;100286.13;5052350;28;20049;-77
2023/10/20 02:52:26;;;;;;;36.60;34.55;;;;;;;8.66;100.00;100280.28;5071630;28;20051;-78
2023/10/20 02:55:00;;;;;;;36.90;34.80;;;;;;;8.68;100.00;100279.06;5071646;28;20048;-77
2023/10/20 03:00:54;;;;;;;34.40;32.40;;;;;;;8.48;100.00;100287.00;5054873;28;20044;-77
2023/10/20 03:03:34;;;;;;;33.40;31.58;;;;;;;8.45;100.00;100286.59;5071811;28;20048;-77
2023/10/20 03:16:07;;;;;;;33.60;31.45;;;;;;;8.16;100.00;100277.94;5063793;28;20067;-77
2023/10/20 03:18:41;;;;;;;40.45;38.05;;;;;;;8.57;100.00;100276.22;5065574;28;20045;-76
2023/10/20 03:21:21;;;;;;;41.13;38.85;;;;;;;8.47;100.00;100274.78;5066194;28;20060;-77
2023/10/20 03:27:12;;;;;;;35.65;33.55;;;;;;;8.33;100.00;100281.03;5055185;28;20082;-77
2023/10/20 03:29:58;;;;;;;32.03;30.23;;;;;;;8.40;100.00;100291.66;5051493;28;20074;-77
2023/10/20 03:32:53;;;;;;;38.17;36.08;;;;;;;8.40;100.00;100273.94;5070135;28;20048;-77
2023/10/20 03:35:33;;;;;;;39.13;36.03;;;;;;;8.40;100.00;100278.44;5044522;28;20137;-77
2023/10/20 03:41:40;;;;;;;47.80;44.33;;;;;;;8.01;100.00;100266.72;5061644;28;20036;-76
2023/10/20 03:44:21;;;;;;;43.13;40.03;;;;;;;7.94;100.00;100272.00;5050933;28;20053;-77
2023/10/20 03:46:56;;;;;;;42.08;39.15;;;;;;;7.57;100.00;100265.38;5064170;28;20053;-77
2023/10/20 03:50:00;;;;;;;36.08;33.28;;;;;;;7.94;100.00;100269.38;5067237;28;20431;-75
2023/10/20 03:52:38;;;;;;;40.95;38.03;;;;;;;7.79;100.00;100268.72;5059572;28;20060;-78
2023/10/20 03:55:07;;;;;;;43.85;40.92;;;;;;;8.09;100.00;100263.91;5070614;28;20052;-76
2023/10/20 03:57:49;;;;;;;55.38;51.97;;;;;;;8.13;100.00;100259.84;5067897;28;20049;-79
2023/10/20 04:00:18;;;;;;;53.72;50.20;;;;;;;8.00;100.00;100260.63;5069844;28;20048;-77
2023/10/20 04:02:47;;;;;;;36.95;34.45;;;;;;;7.84;100.00;100257.53;5056812;28;20045;-77
2023/10/20 04:05:16;;;;;;;32.40;30.10;;;;;;;7.82;100.00;100257.75;5057043;28;20202;-77
2023/10/20 04:11:06;;;;;;;41.08;38.90;;;;;;;8.28;100.00;100249.06;5070637;28;20428;-77
2023/10/20 04:13:33;;;;;;;41.10;38.85;;;;;;;7.86;100.00;100248.38;5062459;28;20511;-77
2023/10/20 04:16:23;;;;;;;62.17;59.20;;;;;;;7.97;100.00;100247.81;5062358;28;20524;-77
2023/10/20 04:19:14;;;;;;;40.65;38.65;;;;;;;8.11;100.00;100251.31;5055097;28;20076;-76
2023/10/20 04:21:43;;;;;;;35.97;33.97;;;;;;;8.09;100.00;100249.88;5055646;28;20048;-77
2023/10/20 04:24:10;;;;;;;36.17;34.28;;;;;;;8.10;100.00;100254.94;5054378;28;20075;-76
2023/10/20 04:26:41;;;;;;;34.03;32.22;;;;;;;8.01;100.00;100242.94;5059416;28;20057;-77
2023/10/20 04:29:33;;;;;;;34.80;33.00;;;;;;;7.81;100.00;100250.84;5062889;28;20208;-76
2023/10/20 04:53:52;;;;;;;21.00;19.70;;;;;;;7.87;100.00;100265.91;5014776;28;20072;-78
2023/10/20 04:56:32;;;;;;;20.52;19.27;;;;;;;8.02;100.00;100261.25;5055907;28;20139;-76
2023/10/20 04:59:30;;;;;;;21.48;20.17;;;;;;;8.20;100.00;100260.69;5071294;28;20136;-76
2023/10/20 05:02:05;;;;;;;21.10;19.80;;;;;;;8.01;100.00;100250.88;5067919;28;20076;-76
2023/10/20 05:07:58;;;;;;;20.48;19.35;;;;;;;8.43;100.00;100252.38;5064361;28;20035;-76
2023/10/20 05:10:25;;;;;;;19.92;18.83;;;;;;;8.56;100.00;100253.41;5061916;28;20557;-76
2023/10/20 05:12:52;;;;;;;21.02;19.85;;;;;;;8.59;100.00;100263.56;5063867;28;20431;-76
2023/10/20 05:16:06;;;;;;;20.45;19.23;;;;;;;8.85;100.00;100260.91;5054661;28;20049;-77
2023/10/20 05:18:42;;;;;;;21.40;20.10;;;;;;;8.98;100.00;100262.72;5017781;28;20141;-76
2023/10/20 05:21:11;;;;;;;22.60;21.20;;;;;;;9.17;100.00;100266.38;5035322;28;20053;-77
2023/10/20 05:23:49;;;;;;;26.00;24.15;;;;;;;9.28;100.00;100268.38;5074143;28;20075;-77
2023/10/20 05:26:16;;;;;;;23.02;21.73;;;;;;;9.44;100.00;100264.47;5057726;28;20087;-77
2023/10/20 05:28:43;;;;;;;24.05;22.75;;;;;;;9.58;100.00;100262.56;5064124;28;20041;-77
2023/10/20 05:31:10;;;;;;;25.60;24.15;;;;;;;9.76;100.00;100256.56;5065326;28;20049;-77
2023/10/20 05:37:29;;;;;;;24.73;23.15;;;;;;;9.93;100.00;100236.50;5053515;28;20044;-77
2023/10/20 05:40:05;;;;;;;25.58;24.08;;;;;;;10.08;100.00;100230.91;5057351;28;20439;-77
2023/10/20 05:42:33;;;;;;;23.25;21.95;;;;;;;10.23;100.00;100225.28;5067753;28;20099;-78
2023/10/20 05:45:03;;;;;;;23.63;22.23;;;;;;;10.58;100.00;100232.78;5071931;28;20048;-77
2023/10/20 05:51:27;;;;;;;23.52;22.23;;;;;;;11.02;100.00;100215.81;5068518;28;20040;-76
2023/10/20 05:53:55;;;;;;;26.92;25.52;;;;;;;11.55;100.00;100215.19;5059357;28;20049;-75
2023/10/20 05:56:22;;;;;;;27.05;25.50;;;;;;;11.70;100.00;100215.59;5059415;28;20060;-75
2023/10/20 05:58:51;;;;;;;29.63;27.58;;;;;;;11.95;100.00;100211.22;5067516;28;20049;-76
2023/10/20 06:01:18;;;;;;;26.95;25.15;;;;;;;12.18;100.00;100221.94;5070374;28;20044;-76
2023/10/20 06:04:17;;;;;;;27.77;25.88;;;;;;;12.69;100.00;100225.81;5055643;28;20040;-76
2023/10/20 06:06:45;;;;;;;28.80;27.30;;;;;;;15.74;100.00;100212.53;5061155;28;20432;-77
2023/10/20 06:09:17;;;;;;;26.42;24.63;;;;;;;17.04;100.00;100216.78;5061504;28;20041;-76
2023/10/20 06:11:43;;;;;;;26.67;25.08;;;;;;;17.52;100.00;100208.63;5066804;28;20110;-78
2023/10/20 06:14:12;;;;;;;27.17;25.58;;;;;;;17.70;100.00;100218.91;5071892;28;20048;-75
2023/10/20 06:16:46;;;;;;;29.50;27.80;;;;;;;17.74;100.00;100203.88;5071909;28;20515;-75
2023/10/20 06:19:13;;;;;;;27.58;25.77;;;;;;;16.48;100.00;100225.22;5062435;28;20048;-74
2023/10/20 06:21:42;;;;;;;25.23;23.63;;;;;;;15.15;100.00;100222.25;5067483;28;20052;-75
2023/10/20 06:24:09;;;;;;;26.20;24.50;;;;;;;15.37;100.00;100239.13;5067532;28;20053;-76
2023/10/20 06:26:37;;;;;;;24.02;22.52;;;;;;;15.55;100.00;100251.34;5067341;28;20048;-75
2023/10/20 06:29:20;;;;;;;22.85;21.25;;;;;;;15.84;100.00;100252.00;5060963;28;20436;-76
2023/10/20 06:31:57;;;;;;;25.33;23.73;;;;;;;16.44;100.00;100253.63;5060308;28;20052;-75
2023/10/20 06:34:34;;;;;;;25.00;23.50;;;;;;;16.49;100.00;100261.72;5066367;28;20045;-75
2023/10/20 06:37:08;;;;;;;24.52;23.23;;;;;;;16.74;100.00;100248.75;5065288;28;20076;-75
2023/10/20 06:39:37;;;;;;;23.95;22.45;;;;;;;17.14;100.00;100251.69;5062955;28;20072;-75
2023/10/20 06:42:06;;;;;;;27.77;26.17;;;;;;;17.41;100.00;100258.81;5069545;28;20056;-75
2023/10/20 06:44:34;;;;;;;25.02;23.52;;;;;;;17.35;100.00;100257.16;5057875;28;20401;-75
2023/10/20 06:47:29;;;;;;;24.13;22.73;;;;;;;17.85;100.00;100253.88;5064944;28;20053;-75
2023/10/20 06:49:56;;;;;;;23.98;22.48;;;;;;;18.21;100.00;100261.19;5063658;28;20665;-76
2023/10/20 06:52:23;;;;;;;24.90;23.30;;;;;;;18.75;100.00;100248.03;5070430;28;20409;-75
2023/10/20 06:54:51;;;;;;;25.10;23.50;;;;;;;18.84;100.00;100256.34;5055303;28;20053;-76
2023/10/20 06:57:20;;;;;;;25.17;23.48;;;;;;;19.10;100.00;100251.72;5065179;28;20063;-76
2023/10/20 06:59:57;;;;;;;24.10;22.60;;;;;;;19.23;100.00;100247.63;5065842;28;20576;-75
2023/10/20 07:02:38;;;;;;;23.00;21.60;;;;;;;19.26;100.00;100249.78;5066625;28;20123;-75
2023/10/20 07:05:10;;;;;;;23.05;21.75;;;;;;;19.32;100.00;100247.88;5066098;28;20552;-75
2023/10/20 07:07:49;;;;;;;25.30;22.70;;;;;;;19.92;100.00;100237.91;5067999;28;20052;-75
2023/10/20 07:10:17;;;;;;;24.08;22.48;;;;;;;19.72;100.00;100248.81;5070591;28;20428;-74
2023/10/20 07:12:50;;;;;;;26.70;25.10;;;;;;;20.45;100.00;100246.13;5058819;28;20040;-74
2023/10/20 07:15:17;;;;;;;;;;;;;;;20.55;100.00;100239.88;5061630;28;20123;-75
2023/10/20 07:17:44;;;;;;;26.05;24.45;;;;;;;20.03;100.00;100247.53;5063589;28;20010;-75
2023/10/20 07:20:12;;;;;;;26.05;24.55;;;;;;;20.96;100.00;100242.16;5064449;28;20139;-75
2023/10/20 07:22:39;;;;;;;24.92;23.33;;;;;;;21.35;100.00;100239.28;5064716;28;20131;-75
2023/10/20 07:25:17;;;;;;;24.75;23.13;;;;;;;21.15;100.00;100244.91;5064650;28;20075;-75
2023/10/20 07:27:44;;;;;;;24.70;23.20;;;;;;;21.26;100.00;100247.22;5069903;28;20046;-74
2023/10/20 07:30:13;;;;;;;24.38;22.77;;;;;;;21.10;100.00;100237.69;5067331;28;20507;-74
2023/10/20 07:32:41;;;;;;;25.80;24.10;;;;;;;21.35;100.00;100238.47;5070094;28;20045;-74
2023/10/20 07:35:11;;;;;;;25.27;23.60;;;;;;;21.66;100.00;100236.22;5065129;28;20466;-75
2023/10/20 07:37:38;;;;;;;25.20;23.08;;;;;;;22.04;100.00;100228.91;5066180;28;20055;-75
2023/10/20 07:40:07;;;;;;;24.85;23.15;;;;;;;21.77;100.00;100220.66;5067176;28;20058;-75
2023/10/20 07:42:42;;;;;;;25.40;23.73;;;;;;;22.43;100.00;100219.66;5067689;28;20053;-75
2023/10/20 07:45:10;;;;;;;26.05;24.35;;;;;;;22.99;100.00;100209.72;5058948;28;20048;-75
2023/10/20 07:47:38;;;;;;;26.20;24.70;;;;;;;23.14;100.00;100214.81;5069950;28;20123;-75
2023/10/20 07:50:06;;;;;;;25.48;23.98;;;;;;;23.28;100.00;100212.91;5059936;28;20057;-74
2023/10/20 07:52:34;;;;;;;26.63;24.88;;;;;;;23.65;100.00;100216.47;5062476;28;20049;-75
2023/10/20 07:55:02;;;;;;;26.08;24.08;;;;;;;24.19;100.00;100214.69;5063271;28;20048;-74
2023/10/20 07:57:29;;;;;;;25.15;23.35;;;;;;;23.86;100.00;100213.31;5056106;28;20053;-74
2023/10/20 07:59:55;;;;;;;26.92;25.13;;;;;;;24.27;100.00;100215.03;5067619;28;20067;-75
2023/10/20 08:02:50;;;;;;;25.65;23.88;;;;;;;24.32;99.88;100217.63;5068598;28;20088;-75
2023/10/20 08:05:17;;;;;;;25.70;24.00;;;;;;;24.37;100.00;100212.09;5067983;28;20415;-77
2023/10/20 08:07:44;;;;;;;26.50;24.80;;;;;;;24.59;96.94;100211.28;5066650;28;20483;-77
2023/10/20 08:10:11;;;;;;;25.17;23.55;;;;;;;25.04;95.15;100211.94;5061758;28;20048;-75
2023/10/20 08:12:56;;;;;;;26.58;24.98;;;;;;;24.97;91.31;100206.16;5062169;28;20052;-78
2023/10/20 08:15:28;;;;;;;31.02;29.13;;;;;;;24.87;93.51;100207.25;5068047;28;20500;-77
2023/10/20 08:17:57;;;;;;;30.48;28.58;;;;;;;25.23;89.01;100217.13;5059320;28;20815;-75
2023/10/20 08:20:24;;;;;;;31.25;29.35;;;;;;;23.69;74.74;100208.50;5063044;28;20056;-76
2023/10/20 08:22:50;;;;;;;30.77;28.80;;;;;;;24.06;100.00;100207.41;5062257;28;20053;-77
2023/10/20 08:25:17;;;;;;;31.65;29.75;;;;;;;26.40;82.88;100201.00;5054066;28;20060;-74
2023/10/20 08:27:48;;;;;;;30.33;28.42;;;;;;;25.88;84.33;100212.75;5060025;28;20484;-74
2023/10/20 08:30:18;;;;;;;44.83;28.73;;;;;;;26.29;82.06;100200.53;5057912;28;20466;-74
2023/10/20 08:32:51;;;;;;;31.55;29.65;;;;;;;26.30;77.70;100212.22;5061112;28;20148;-75
2023/10/20 08:35:22;;;;;;;32.38;30.48;;;;;;;26.08;81.82;100210.50;5069037;28;20049;-76
2023/10/20 08:37:52;;;;;;;32.63;30.65;;;;;;;24.40;60.50;100211.47;5049102;28;20064;-78
2023/10/20 08:40:21;;;;;;;29.77;27.98;;;;;;;25.58;81.73;100207.13;5060741;28;20508;-75
2023/10/20 08:42:51;;;;;;;33.85;32.05;;;;;;;26.62;77.59;100205.44;5060540;28;20053;-76
2023/10/20 08:45:20;;;;;;;33.17;31.10;;;;;;;26.58;75.76;100213.44;5055765;28;20139;-74
2023/10/20 08:47:49;;;;;;;31.08;29.17;;;;;;;27.31;71.74;100215.22;5057194;28;20075;-76
2023/10/20 08:50:20;;;;;;;27.92;26.13;;;;;;;26.49;76.61;100227.09;5064494;28;20048;-75
2023/10/20 08:52:47;;;;;;;29.15;27.35;;;;;;;25.12;67.37;100229.38;5063373;28;20434;-77
2023/10/20 08:55:13;;;;;;;28.23;26.52;;;;;;;23.46;83.49;100232.06;5063690;28;20410;-74
2023/10/20 08:57:50;;;;;;;25.88;24.17;;;;;;;23.93;93.33;100238.91;5059209;28;20056;-76
2023/10/20 09:00:20;;;;;;;25.92;24.10;;;;;;;24.87;72.61;100233.59;5056351;28;20058;-77
2023/10/20 09:02:50;;;;;;;27.95;26.23;;;;;;;24.51;100.00;100233.72;5068557;28;20062;-75
2023/10/20 09:05:23;;;;;;;29.02;27.25;;;;;;;25.44;84.78;100236.34;5056656;28;20049;-77
2023/10/20 09:07:56;;;;;;;29.60;27.90;;;;;;;23.70;66.28;100224.50;5064553;28;20086;-75
2023/10/20 09:10:23;;;;;;;25.80;24.30;;;;;;;23.83;100.00;100230.19;5065475;28;20048;-75
2023/10/20 09:12:50;;;;;;;28.92;27.13;;;;;;;23.70;75.04;100218.28;5063846;28;20056;-75
2023/10/20 09:15:17;;;;;;;28.40;26.60;;;;;;;25.49;86.16;100217.19;5064504;28;20082;-77
2023/10/20 09:17:54;;;;;;;27.05;25.33;;;;;;;25.58;96.17;100212.56;5058254;28;20045;-77
2023/10/20 09:20:23;;;;;;;28.77;27.02;;;;;;;27.52;80.10;100205.13;5067158;28;20036;-74
2023/10/20 09:22:57;;;;;;;30.13;28.23;;;;;;;27.72;67.97;100200.81;5066811;28;20504;-74
2023/10/20 09:25:27;;;;;;;29.17;26.70;;;;;;;29.55;57.97;100202.22;5067300;28;20057;-76
2023/10/20 09:27:55;;;;;;;28.42;26.63;;;;;;;27.51;57.70;100195.38;5057885;28;20131;-75
2023/10/20 09:30:24;;;;;;;29.33;27.52;;;;;;;26.71;75.84;100192.56;5054061;28;20041;-75
2023/10/20 09:32:51;;;;;;;27.10;25.40;;;;;;;27.19;81.08;100191.41;5073471;28;20458;-75
2023/10/20 09:35:18;;;;;;;28.05;26.17;;;;;;;26.19;67.88;100193.50;5066140;28;20045;-75
2023/10/20 09:37:54;;;;;;;27.40;25.60;;;;;;;25.23;75.23;100189.16;5069820;28;20048;-75
2023/10/20 09:40:23;;;;;;;30.95;29.05;;;;;;;26.17;88.05;100187.59;5069673;28;20110;-75
2023/10/20 09:43:06;;;;;;;32.35;30.45;;;;;;;25.59;84.66;100180.72;5069542;28;20049;-75
2023/10/20 09:45:37;;;;;;;29.45;27.65;;;;;;;26.42;70.85;100172.31;5066727;28;20044;-76
2023/10/20 09:48:19;;;;;;;29.23;27.42;;;;;;;25.38;91.36;100174.31;5069069;28;20123;-75
2023/10/20 09:50:56;;;;;;;28.70;26.80;;;;;;;24.84;97.69;100166.31;5064960;28;20114;-75
2023/10/20 09:53:25;;;;;;;30.25;28.35;;;;;;;26.82;79.85;100157.59;5066098;28;20057;-77
2023/10/20 09:55:53;;;;;;;28.75;26.95;;;;;;;27.90;79.98;100149.66;5068913;28;20078;-76
2023/10/20 09:58:26;;;;;;;30.85;28.95;;;;;;;27.98;67.78;100153.41;5054472;28;20136;-76
2023/10/20 10:00:56;;;;;;;30.13;28.23;;;;;;;25.57;60.08;100153.88;5055804;28;20057;-76
2023/10/20 10:03:28;;;;;;;28.95;27.05;;;;;;;24.84;92.23;100152.75;5066680;28;20055;-76
2023/10/20 10:05:57;;;;;;;32.75;30.75;;;;;;;24.94;65.28;100154.38;5066471;28;20733;-76
2023/10/20 10:08:26;;;;;;;33.63;31.52;;;;;;;26.84;58.74;100150.72;5055842;28;20162;-76
2023/10/20 10:10:53;;;;;;;29.25;27.35;;;;;;;27.71;76.91;100146.56;5069696;28;20049;-76
2023/10/20 10:13:33;;;;;;;30.73;28.83;;;;;;;27.63;67.14;100134.63;5053892;28;20049;-75
2023/10/20 10:16:13;;;;;;;32.00;30.10;;;;;;;24.74;56.27;100142.97;5056090;28;20049;-75
2023/10/20 10:18:46;;;;;;;31.30;29.40;;;;;;;25.82;83.38;100135.16;5064293;28;20049;-75
2023/10/20 10:21:30;;;;;;;29.10;27.20;;;;;;;28.33;64.73;100131.22;5055953;28;20804;-75
2023/10/20 10:24:18;;;;;;;26.75;24.95;;;;;;;25.52;81.73;100134.19;5058492;28;20098;-76
2023/10/20 10:26:51;;;;;;;29.30;27.40;;;;;;;27.04;66.68;100121.88;5065752;28;20084;-75
2023/10/20 10:29:39;;;;;;;30.50;28.50;;;;;;;25.59;51.01;100123.63;5063056;28;20044;-75
2023/10/20 10:32:11;;;;;;;30.65;28.65;;;;;;;26.56;77.14;100111.44;5059932;28;20505;-74
2023/10/20 10:34:53;;;;;;;28.08;26.25;;;;;;;27.33;46.85;100112.09;5060793;28;20045;-75
2023/10/20 10:37:32;;;;;;;28.42;26.50;;;;;;;24.86;79.35;100121.44;5068286;28;20045;-75
2023/10/20 10:40:08;;;;;;;30.50;28.40;;;;;;;29.57;52.63;100106.16;5064429;28;20481;-76
2023/10/20 10:42:41;;;;;;;29.75;27.75;;;;;;;29.07;53.53;100110.97;5058296;28;20046;-76
2023/10/20 10:45:23;;;;;;;32.40;30.60;;;;;;;27.61;54.18;100106.88;5059241;28;20049;-76
2023/10/20 10:48:05;;;;;;;35.97;33.28;;;;;;;26.41;67.01;100110.81;5068617;28;20268;-77
2023/10/20 10:50:34;;;;;;;;;;;;;;;27.61;47.06;100117.78;5069590;28;20413;-75
2023/10/20 10:53:02;;;;;;;33.53;31.58;;;;;;;26.83;51.13;100121.84;5063855;28;19924;-75
2023/10/20 10:55:30;;;;;;;33.92;31.83;;;;;;;27.34;59.31;100114.47;5067258;28;20044;-76
2023/10/20 10:57:58;;;;;;;31.60;29.60;;;;;;;26.79;48.95;100114.69;5058699;28;20433;-74
2023/10/20 11:00:32;;;;;;;31.35;29.35;;;;;;;25.67;64.43;100116.59;5052347;28;20041;-76
2023/10/20 11:03:07;;;;;;;33.58;31.55;;;;;;;26.91;54.63;100104.66;5056743;28;20044;-75
2023/10/20 11:05:34;;;;;;;34.58;32.47;;;;;;;28.79;52.07;100119.06;5054834;28;20735;-76
2023/10/20 11:08:03;;;;;;;33.35;31.25;;;;;;;28.29;48.05;100115.50;5059725;28;20622;-75
2023/10/20 11:10:33;;;;;;;33.25;31.05;;;;;;;25.27;56.92;100131.16;5053980;28;20064;-76
2023/10/20 11:13:15;;;;;;;41.00;38.70;;;;;;;27.80;55.00;100126.28;5057045;28;20048;-75
2023/10/20 11:15:42;;;;;;;;;;;;;;;27.76;47.45;100114.44;5054693;28;20041;-75
2023/10/20 11:18:11;;;;;;;38.90;36.70;;;;;;;24.98;55.12;100128.97;5060240;28;19925;-75
2023/10/20 11:20:41;;;;;;;43.28;40.88;;;;;;;25.07;55.70;100123.56;5059947;28;20052;-75
2023/10/20 11:23:08;;;;;;;34.67;32.65;;;;;;;24.98;63.62;100123.56;5054439;28;20128;-75
2023/10/20 11:25:48;;;;;;;32.15;30.05;;;;;;;26.24;62.69;100113.63;5062373;28;20424;-75
2023/10/20 11:28:15;;;;;;;32.90;30.80;;;;;;;26.06;67.72;100117.53;5062587;28;20044;-75
2023/10/20 11:30:45;;;;;;;35.72;33.63;;;;;;;23.52;63.37;100117.81;5059533;28;20500;-75
2023/10/20 11:33:16;;;;;;;34.53;32.42;;;;;;;25.06;61.67;100111.13;5066728;28;20070;-76
2023/10/20 11:35:44;;;;;;;33.27;31.17;;;;;;;26.58;59.42;100107.25;5059146;28;20049;-75
2023/10/20 11:38:11;;;;;;;44.83;42.33;;;;;;;26.34;49.71;100109.75;5055117;28;20294;-75
2023/10/20 11:40:38;;;;;;;35.70;33.58;;;;;;;26.18;51.07;100118.44;5060298;28;20053;-75
2023/10/20 11:43:07;;;;;;;30.63;28.73;;;;;;;25.14;61.41;100115.78;5052683;28;20416;-75
2023/10/20 11:45:34;;;;;;;27.90;26.00;;;;;;;26.24;53.43;100114.41;5059197;28;20127;-75
2023/10/20 11:48:01;;;;;;;32.50;30.58;;;;;;;26.66;62.04;100113.78;5052161;28;20052;-75
2023/10/20 11:50:28;;;;;;;35.83;33.83;;;;;;;24.74;61.41;100123.97;5057086;28;20044;-76
2023/10/20 11:52:55;;;;;;;32.17;30.27;;;;;;;26.16;56.67;100109.78;5051817;28;20045;-75
2023/10/20 11:55:22;;;;;;;31.02;29.02;;;;;;;26.84;49.80;100111.75;5057467;28;20061;-75
2023/10/20 11:57:52;;;;;;;34.53;32.33;;;;;;;26.40;50.11;100114.66;5049757;28;20052;-76
2023/10/20 12:00:26;;;;;;;39.38;37.17;;;;;;;24.47;53.44;100116.06;5060613;28;20063;-75
2023/10/20 12:02:54;;;;;;;30.83;28.73;;;;;;;25.79;73.21;100119.47;5065809;28;20057;-75
2023/10/20 12:05:46;;;;;;;31.05;29.05;;;;;;;26.80;50.83;100124.44;5057059;28;20049;-75
2023/10/20 12:08:24;;;;;;;35.72;32.63;;;;;;;27.48;58.01;100118.88;5051085;28;20132;-75
2023/10/20 12:10:50;;;;;;;31.35;29.05;;;;;;;26.46;59.35;100129.69;5061336;28;20094;-76
2023/10/20 12:13:18;;;;;;;32.92;30.73;;;;;;;26.50;50.89;100125.22;5065185;28;20506;-75
2023/10/20 12:15:46;;;;;;;31.67;29.45;;;;;;;26.67;55.37;100129.78;5054962;28;20047;-76
2023/10/20 12:18:15;;;;;;;31.67;29.77;;;;;;;25.17;51.07;100131.44;5061233;28;20049;-76
2023/10/20 12:20:42;;;;;;;31.83;29.92;;;;;;;23.67;63.19;100127.50;5052228;28;20044;-77
2023/10/20 12:23:09;;;;;;;34.25;32.35;;;;;;;24.35;64.68;100127.47;5054985;28;20056;-76
2023/10/20 12:25:36;;;;;;;31.70;29.80;;;;;;;23.90;72.20;100130.22;5053013;28;20049;-76
2023/10/20 12:28:08;;;;;;;28.98;27.17;;;;;;;25.41;59.37;100130.19;5053694;28;20045;-76
2023/10/20 12:30:35;;;;;;;;;;;;;;;26.33;69.81;100127.19;5058747;28;20432;-76
2023/10/20 12:33:05;;;;;;;39.92;37.83;;;;;;;25.11;61.69;100132.69;5053220;28;20003;-75
2023/10/20 12:35:32;;;;;;;41.45;39.45;;;;;;;25.68;73.74;100134.50;5064418;28;20083;-76
2023/10/20 12:37:59;;;;;;;31.42;29.63;;;;;;;26.04;69.74;100132.22;5059693;28;20436;-76
2023/10/20 12:40:26;;;;;;;37.28;35.08;;;;;;;26.63;60.09;100120.69;5066460;28;20500;-76
2023/10/20 12:42:53;;;;;;;36.53;34.30;;;;;;;24.31;59.34;100118.34;5058537;28;20048;-76
2023/10/20 12:45:23;;;;;;;39.97;37.78;;;;;;;26.49;66.18;100120.13;5055775;28;20460;-76
2023/10/20 12:47:55;;;;;;;39.28;37.08;;;;;;;27.63;58.70;100123.72;5072208;28;20506;-76
2023/10/20 12:50:36;;;;;;;35.50;33.50;;;;;;;26.48;49.40;100129.38;5061140;28;20059;-76
2023/10/20 12:53:04;;;;;;;39.92;37.67;;;;;;;28.58;53.81;100112.94;5058022;28;20050;-76
2023/10/20 12:55:31;;;;;;;35.50;33.50;;;;;;;26.48;46.93;100115.78;5055972;28;20595;-76
2023/10/20 12:57:58;;;;;;;38.20;36.00;;;;;;;27.70;52.65;100109.53;5054108;28;20057;-76
2023/10/20 13:00:32;;;;;;;31.75;29.70;;;;;;;24.74;51.91;100120.47;5052791;28;20060;-76
2023/10/20 13:02:59;;;;;;;30.50;28.60;;;;;;;24.40;58.38;100116.47;5054248;28;20055;-75
2023/10/20 13:05:26;;;;;;;26.15;24.55;;;;;;;26.68;62.67;100108.81;5064939;28;20452;-75
2023/10/20 13:07:54;;;;;;;31.58;29.48;;;;;;;25.94;60.12;100118.97;5067716;28;20482;-75
2023/10/20 13:10:21;;;;;;;28.45;26.55;;;;;;;27.31;54.97;100120.59;5062031;28;20067;-75
2023/10/20 13:12:57;;;;;;;28.80;27.00;;;;;;;27.72;54.62;100115.47;5055751;28;20102;-75
2023/10/20 13:15:24;;;;;;;29.70;27.90;;;;;;;26.26;61.06;100117.63;5060035;28;20126;-75
2023/10/20 13:17:51;;;;;;;29.75;27.85;;;;;;;24.46;64.34;100117.97;5068007;28;20082;-75
2023/10/20 13:20:18;;;;;;;30.40;28.60;;;;;;;26.60;63.34;100115.13;5065419;28;20435;-75
2023/10/20 13:23:01;;;;;;;23.75;22.15;;;;;;;24.51;68.02;100122.44;5060893;28;20771;-75
2023/10/20 13:25:33;;;;;;;26.25;24.65;;;;;;;24.01;64.63;100123.44;5060653;28;20045;-77
2023/10/20 13:28:08;;;;;;;26.40;24.70;;;;;;;25.27;80.26;100114.03;5060025;28;20056;-75
2023/10/20 13:30:36;;;;;;;27.63;25.20;;;;;;;25.70;71.67;100114.03;5063788;28;20586;-75
2023/10/20 13:33:04;;;;;;;28.73;26.92;;;;;;;26.62;66.13;100110.13;5066934;28;20044;-76
2023/10/20 13:35:41;;;;;;;26.83;25.13;;;;;;;26.77;60.59;100101.38;5070559;28;20044;-75
2023/10/20 13:38:09;;;;;;;35.67;33.38;;;;;;;26.88;66.36;100102.59;5065383;28;20492;-75